createdAt,value
2017-06-22T00:00:26.894Z,0
2017-06-22T00:01:28.715Z,0
2017-06-22T00:02:30.537Z,0
2017-06-22T00:03:32.414Z,0
2017-06-22T00:04:34.262Z,0
2017-06-22T00:05:36.115Z,0
2017-06-22T00:06:50.295Z,0
2017-06-22T00:07:52.172Z,0
2017-06-22T00:08:54.056Z,0
2017-06-22T00:09:55.936Z,0
2017-06-22T00:10:57.756Z,0
2017-06-22T00:11:59.547Z,0
2017-06-22T00:13:01.410Z,0
2017-06-22T00:14:03.289Z,0
2017-06-22T00:15:05.144Z,0
2017-06-22T00:16:19.328Z,0
2017-06-22T00:17:21.209Z,0
2017-06-22T00:18:23.091Z,0
2017-06-22T00:19:24.971Z,0
2017-06-22T00:20:26.791Z,0
2017-06-22T00:21:28.585Z,0
2017-06-22T00:22:30.469Z,0
2017-06-22T00:23:32.350Z,0
2017-06-22T00:24:34.227Z,0
2017-06-22T00:25:48.432Z,0
2017-06-22T00:26:50.304Z,0
2017-06-22T00:27:52.166Z,0
2017-06-22T00:28:54.047Z,0
2017-06-22T00:29:55.866Z,0
2017-06-22T00:30:57.663Z,0
2017-06-22T00:31:59.543Z,0
2017-06-22T00:33:01.431Z,0
2017-06-22T00:34:03.307Z,0
2017-06-22T00:35:17.460Z,0
2017-06-22T00:36:19.340Z,0
2017-06-22T00:37:21.211Z,0
2017-06-22T00:38:23.076Z,0
2017-06-22T00:39:24.900Z,0
2017-06-22T00:40:26.719Z,0
2017-06-22T00:41:28.598Z,0
2017-06-22T00:42:30.479Z,0
2017-06-22T00:43:32.336Z,0
2017-06-22T00:44:46.470Z,0
2017-06-22T00:45:48.331Z,0
2017-06-22T00:46:50.210Z,0
2017-06-22T00:47:52.070Z,0
2017-06-22T00:48:53.894Z,0
2017-06-22T00:49:55.714Z,0
2017-06-22T00:50:57.589Z,0
2017-06-22T00:51:59.473Z,0
2017-06-22T00:53:01.350Z,0
2017-06-22T00:54:15.476Z,0
2017-06-22T00:55:17.334Z,0
2017-06-22T00:56:19.199Z,0
2017-06-22T00:57:21.072Z,0
2017-06-22T00:58:22.850Z,0
2017-06-22T00:59:24.640Z,0
2017-06-22T01:00:26.508Z,0
2017-06-22T01:01:28.380Z,0
2017-06-22T01:02:30.233Z,0
2017-06-22T01:03:44.353Z,0
2017-06-22T01:04:46.244Z,0
2017-06-22T01:05:48.126Z,0
2017-06-22T01:06:50.008Z,0
2017-06-22T01:07:51.822Z,0
2017-06-22T01:08:53.619Z,0
2017-06-22T01:09:55.476Z,0
2017-06-22T01:10:57.338Z,0
2017-06-22T01:11:59.210Z,0
2017-06-22T01:13:13.387Z,0
2017-06-22T01:14:15.266Z,0
2017-06-22T01:15:17.150Z,0
2017-06-22T01:16:19.029Z,0
2017-06-22T01:17:20.855Z,0
2017-06-22T01:18:22.675Z,0
2017-06-22T01:19:24.545Z,0
2017-06-22T01:20:26.407Z,0
2017-06-22T01:21:28.267Z,0
2017-06-22T01:22:42.397Z,0
2017-06-22T01:23:44.257Z,0
2017-06-22T01:24:46.138Z,0
2017-06-22T01:25:48.014Z,0
2017-06-22T01:26:49.816Z,0
2017-06-22T01:27:51.613Z,0
2017-06-22T01:28:53.470Z,0
2017-06-22T01:29:55.324Z,0
2017-06-22T01:30:57.183Z,0
2017-06-22T01:32:11.371Z,0
2017-06-22T01:33:13.243Z,0
2017-06-22T01:34:15.103Z,0
2017-06-22T01:35:16.978Z,0
2017-06-22T01:36:18.771Z,0
2017-06-22T01:37:20.571Z,0
2017-06-22T01:38:22.428Z,0
2017-06-22T01:39:24.285Z,0
2017-06-22T01:40:26.145Z,0
2017-06-22T01:41:40.274Z,0
2017-06-22T01:42:42.136Z,0
2017-06-22T01:43:44.014Z,0
2017-06-22T01:44:45.875Z,0
2017-06-22T01:45:47.693Z,0
2017-06-22T01:46:49.493Z,0
2017-06-22T01:47:51.351Z,0
2017-06-22T01:48:53.207Z,0
2017-06-22T01:49:55.085Z,0
2017-06-22T01:51:09.235Z,0
2017-06-22T01:52:11.095Z,0
2017-06-22T01:53:12.956Z,0
2017-06-22T01:54:14.815Z,0
2017-06-22T01:55:16.613Z,0
2017-06-22T01:56:18.411Z,0
2017-06-22T01:57:20.293Z,0
2017-06-22T01:58:22.149Z,0
2017-06-22T01:59:24.008Z,0
2017-06-22T02:00:38.141Z,0
2017-06-22T02:01:40.002Z,0
2017-06-22T02:02:41.879Z,0
2017-06-22T02:03:43.739Z,0
2017-06-22T02:04:45.556Z,0
2017-06-22T02:05:47.355Z,0
2017-06-22T02:06:49.214Z,0
2017-06-22T02:07:51.071Z,0
2017-06-22T02:08:52.950Z,0
2017-06-22T02:10:07.079Z,0
2017-06-22T02:11:08.938Z,0
2017-06-22T02:12:10.817Z,0
2017-06-22T02:13:12.674Z,0
2017-06-22T02:14:14.492Z,0
2017-06-22T02:15:16.291Z,0
2017-06-22T02:16:18.151Z,0
2017-06-22T02:17:20.034Z,0
2017-06-22T02:18:21.913Z,0
2017-06-22T02:19:36.096Z,0
2017-06-22T02:20:37.954Z,0
2017-06-22T02:21:39.836Z,0
2017-06-22T02:22:41.695Z,0
2017-06-22T02:23:43.510Z,0
2017-06-22T02:24:45.315Z,0
2017-06-22T02:25:47.194Z,0
2017-06-22T02:26:49.072Z,0
2017-06-22T02:27:50.928Z,0
2017-06-22T02:29:05.064Z,0
2017-06-22T02:30:06.940Z,0
2017-06-22T02:31:08.821Z,0
2017-06-22T02:32:10.679Z,0
2017-06-22T02:33:12.497Z,0
2017-06-22T02:34:14.313Z,0
2017-06-22T02:35:16.192Z,0
2017-06-22T02:36:18.069Z,0
2017-06-22T02:37:19.930Z,0
2017-06-22T02:38:34.065Z,0
2017-06-22T02:39:35.941Z,0
2017-06-22T02:40:37.803Z,0
2017-06-22T02:41:39.683Z,0
2017-06-22T02:42:41.571Z,0
2017-06-22T02:43:43.427Z,0
2017-06-22T02:44:45.284Z,0
2017-06-22T02:45:47.149Z,0
2017-06-22T02:46:49.028Z,0
2017-06-22T02:48:03.208Z,0
2017-06-22T02:49:05.067Z,0
2017-06-22T02:50:06.928Z,0
2017-06-22T02:51:08.809Z,0
2017-06-22T02:52:10.625Z,0
2017-06-22T02:53:12.434Z,0
2017-06-22T02:54:14.312Z,0
2017-06-22T02:55:16.167Z,0
2017-06-22T02:56:18.031Z,0
2017-06-22T02:57:32.189Z,0
2017-06-22T02:58:34.071Z,0
2017-06-22T02:59:35.959Z,0
2017-06-22T03:00:37.834Z,0
2017-06-22T03:01:39.637Z,0
2017-06-22T03:02:41.461Z,0
2017-06-22T03:03:43.344Z,0
2017-06-22T03:04:45.203Z,0
2017-06-22T03:05:47.064Z,0
2017-06-22T03:07:01.244Z,0
2017-06-22T03:08:03.103Z,0
2017-06-22T03:09:04.966Z,0
2017-06-22T03:10:06.829Z,5
2017-06-22T03:11:08.651Z,5
2017-06-22T03:12:10.451Z,5
2017-06-22T03:13:12.313Z,5
2017-06-22T03:14:14.170Z,5
2017-06-22T03:15:16.034Z,10
2017-06-22T03:16:30.165Z,10
2017-06-22T03:17:32.026Z,10
2017-06-22T03:18:33.896Z,10
2017-06-22T03:19:35.761Z,10
2017-06-22T03:20:37.561Z,10
2017-06-22T03:21:39.375Z,10
2017-06-22T03:22:41.231Z,10
2017-06-22T03:23:43.120Z,15
2017-06-22T03:24:44.999Z,15
2017-06-22T03:25:59.141Z,15
2017-06-22T03:27:01.021Z,15
2017-06-22T03:28:02.906Z,10
2017-06-22T03:29:04.769Z,15
2017-06-22T03:30:06.587Z,20
2017-06-22T03:31:08.393Z,20
2017-06-22T03:32:10.253Z,15
2017-06-22T03:33:12.116Z,15
2017-06-22T03:34:14.000Z,20
2017-06-22T03:35:28.158Z,20
2017-06-22T03:36:30.018Z,25
2017-06-22T03:37:31.905Z,25
2017-06-22T03:38:33.786Z,25
2017-06-22T03:39:35.601Z,25
2017-06-22T03:40:37.427Z,20
2017-06-22T03:41:39.313Z,15
2017-06-22T03:42:41.192Z,25
2017-06-22T03:43:43.059Z,25
2017-06-22T03:44:57.197Z,25
2017-06-22T03:45:59.059Z,30
2017-06-22T03:47:00.930Z,30
2017-06-22T03:48:02.819Z,30
2017-06-22T03:49:04.644Z,30
2017-06-22T03:50:06.470Z,30
2017-06-22T03:51:08.339Z,35
2017-06-22T03:52:10.223Z,35
2017-06-22T03:53:12.091Z,35
2017-06-22T03:54:26.253Z,35
2017-06-22T03:55:28.132Z,35
2017-06-22T03:56:30.010Z,35
2017-06-22T03:57:31.884Z,35
2017-06-22T03:58:33.694Z,35
2017-06-22T03:59:35.524Z,40
2017-06-22T04:00:37.352Z,40
2017-06-22T04:01:39.155Z,40
2017-06-22T04:02:40.983Z,40
2017-06-22T04:03:55.123Z,40
2017-06-22T04:04:57.003Z,40
2017-06-22T04:05:58.874Z,40
2017-06-22T04:07:00.765Z,40
2017-06-22T04:08:02.721Z,40
2017-06-22T04:09:04.578Z,40
2017-06-22T04:10:06.467Z,45
2017-06-22T04:11:08.354Z,45
2017-06-22T04:12:10.243Z,45
2017-06-22T04:13:24.418Z,45
2017-06-22T04:14:26.308Z,45
2017-06-22T04:15:28.202Z,45
2017-06-22T04:16:30.090Z,45
2017-06-22T04:17:31.922Z,45
2017-06-22T04:18:33.754Z,45
2017-06-22T04:19:35.643Z,45
2017-06-22T04:20:37.512Z,45
2017-06-22T04:21:39.405Z,45
2017-06-22T04:22:53.571Z,45
2017-06-22T04:23:55.453Z,50
2017-06-22T04:24:57.327Z,50
2017-06-22T04:25:59.193Z,50
2017-06-22T04:27:01.021Z,50
2017-06-22T04:28:02.834Z,50
2017-06-22T04:29:04.725Z,50
2017-06-22T04:30:06.596Z,50
2017-06-22T04:31:08.488Z,50
2017-06-22T04:32:22.647Z,50
2017-06-22T04:33:24.518Z,50
2017-06-22T04:34:26.393Z,50
2017-06-22T04:35:28.306Z,55
2017-06-22T04:36:30.105Z,55
2017-06-22T04:37:31.937Z,55
2017-06-22T04:38:33.807Z,55
2017-06-22T04:39:35.701Z,55
2017-06-22T04:40:37.568Z,55
2017-06-22T04:41:51.714Z,55
2017-06-22T04:42:53.602Z,55
2017-06-22T04:43:55.469Z,55
2017-06-22T04:44:57.341Z,55
2017-06-22T04:45:59.167Z,60
2017-06-22T04:47:00.983Z,60
2017-06-22T04:48:02.854Z,60
2017-06-22T04:49:04.723Z,60
2017-06-22T04:50:06.572Z,60
2017-06-22T04:51:20.717Z,60
2017-06-22T04:52:22.586Z,60
2017-06-22T04:53:24.461Z,60
2017-06-22T04:54:26.348Z,60
2017-06-22T04:55:28.162Z,60
2017-06-22T04:56:29.994Z,60
2017-06-22T04:57:31.865Z,60
2017-06-22T04:58:33.756Z,60
2017-06-22T04:59:35.623Z,60
2017-06-22T05:00:49.770Z,60
2017-06-22T05:01:51.660Z,65
2017-06-22T05:02:53.531Z,65
2017-06-22T05:03:55.423Z,65
2017-06-22T05:04:57.236Z,65
2017-06-22T05:05:59.061Z,65
2017-06-22T05:07:00.936Z,65
2017-06-22T05:08:02.824Z,65
2017-06-22T05:09:04.694Z,65
2017-06-22T05:10:18.842Z,65
2017-06-22T05:11:20.731Z,65
2017-06-22T05:12:22.601Z,65
2017-06-22T05:13:24.472Z,70
2017-06-22T05:14:26.301Z,70
2017-06-22T05:15:28.112Z,70
2017-06-22T05:16:29.986Z,70
2017-06-22T05:17:31.877Z,70
2017-06-22T05:18:33.769Z,70
2017-06-22T05:19:47.931Z,70
2017-06-22T05:20:49.815Z,75
2017-06-22T05:21:51.686Z,75
2017-06-22T05:22:53.553Z,75
2017-06-22T05:23:55.383Z,75
2017-06-22T05:24:57.206Z,75
2017-06-22T05:25:59.074Z,75
2017-06-22T05:27:00.943Z,75
2017-06-22T05:28:02.817Z,75
2017-06-22T05:29:16.976Z,70
2017-06-22T05:30:18.845Z,75
2017-06-22T05:31:20.738Z,75
2017-06-22T05:32:22.629Z,75
2017-06-22T05:33:24.433Z,75
2017-06-22T05:34:26.245Z,75
2017-06-22T05:35:28.112Z,80
2017-06-22T05:36:29.983Z,80
2017-06-22T05:37:31.855Z,80
2017-06-22T05:38:45.998Z,80
2017-06-22T05:39:47.883Z,75
2017-06-22T05:40:49.751Z,65
2017-06-22T05:41:51.623Z,50
2017-06-22T05:42:53.450Z,50
2017-06-22T05:43:55.262Z,45
2017-06-22T05:44:57.154Z,40
2017-06-22T05:45:59.043Z,35
2017-06-22T05:47:00.912Z,35
2017-06-22T05:48:15.057Z,35
2017-06-22T05:49:16.942Z,35
2017-06-22T05:50:18.834Z,35
2017-06-22T05:51:20.704Z,35
2017-06-22T05:52:22.534Z,35
2017-06-22T05:53:24.337Z,35
2017-06-22T05:54:26.206Z,40
2017-06-22T05:55:28.073Z,40
2017-06-22T05:56:29.940Z,45
2017-06-22T05:57:44.091Z,45
2017-06-22T05:58:45.979Z,40
2017-06-22T05:59:47.872Z,40
2017-06-22T06:00:49.760Z,35
2017-06-22T06:01:51.569Z,35
2017-06-22T06:02:53.381Z,40
2017-06-22T06:03:55.266Z,40
2017-06-22T06:04:57.153Z,40
2017-06-22T06:05:59.041Z,35
2017-06-22T06:07:13.187Z,35
2017-06-22T06:08:15.073Z,35
2017-06-22T06:09:16.961Z,35
2017-06-22T06:10:18.830Z,35
2017-06-22T06:11:20.660Z,30
2017-06-22T06:12:22.487Z,30
2017-06-22T06:13:24.353Z,30
2017-06-22T06:14:26.248Z,30
2017-06-22T06:15:28.134Z,30
2017-06-22T06:16:42.280Z,30
2017-06-22T06:17:44.166Z,30
2017-06-22T06:18:46.028Z,30
2017-06-22T06:19:47.900Z,30
2017-06-22T06:20:49.703Z,30
2017-06-22T06:21:51.531Z,30
2017-06-22T06:22:53.399Z,30
2017-06-22T06:23:55.261Z,30
2017-06-22T06:24:57.135Z,30
2017-06-22T06:26:11.275Z,30
2017-06-22T06:27:13.142Z,30
2017-06-22T06:28:15.030Z,30
2017-06-22T06:29:16.897Z,30
2017-06-22T06:30:18.728Z,35
2017-06-22T06:31:20.530Z,35
2017-06-22T06:32:22.401Z,35
2017-06-22T06:33:24.271Z,35
2017-06-22T06:34:26.158Z,35
2017-06-22T06:35:40.323Z,35
2017-06-22T06:36:42.203Z,35
2017-06-22T06:37:44.074Z,35
2017-06-22T06:38:45.937Z,35
2017-06-22T06:39:47.739Z,30
2017-06-22T06:40:49.551Z,30
2017-06-22T06:41:51.417Z,30
2017-06-22T06:42:53.307Z,35
2017-06-22T06:43:55.197Z,30
2017-06-22T06:45:09.358Z,35
2017-06-22T06:46:11.241Z,35
2017-06-22T06:47:13.110Z,35
2017-06-22T06:48:14.974Z,35
2017-06-22T06:49:16.799Z,35
2017-06-22T06:50:18.607Z,35
2017-06-22T06:51:20.477Z,35
2017-06-22T06:52:22.347Z,35
2017-06-22T06:53:24.217Z,35
2017-06-22T06:54:38.381Z,35
2017-06-22T06:55:40.268Z,40
2017-06-22T06:56:42.140Z,40
2017-06-22T06:57:44.004Z,45
2017-06-22T06:58:45.834Z,45
2017-06-22T06:59:47.639Z,50
2017-06-22T07:00:49.511Z,50
2017-06-22T07:01:51.378Z,45
2017-06-22T07:02:53.271Z,45
2017-06-22T07:04:07.484Z,45
2017-06-22T07:05:09.371Z,45
2017-06-22T07:06:11.261Z,40
2017-06-22T07:07:13.146Z,35
2017-06-22T07:08:14.979Z,35
2017-06-22T07:09:16.785Z,30
2017-06-22T07:10:18.669Z,35
2017-06-22T07:11:20.539Z,35
2017-06-22T07:12:22.403Z,35
2017-06-22T07:13:36.542Z,35
2017-06-22T07:14:38.410Z,35
2017-06-22T07:15:40.284Z,35
2017-06-22T07:16:42.167Z,35
2017-06-22T07:17:43.982Z,35
2017-06-22T07:18:45.788Z,35
2017-06-22T07:19:47.676Z,35
2017-06-22T07:20:49.546Z,35
2017-06-22T07:21:51.436Z,35
2017-06-22T07:23:05.598Z,35
2017-06-22T07:24:07.469Z,35
2017-06-22T07:25:09.365Z,35
2017-06-22T07:26:11.250Z,35
2017-06-22T07:27:13.055Z,35
2017-06-22T07:28:14.871Z,35
2017-06-22T07:29:16.752Z,35
2017-06-22T07:30:18.625Z,35
2017-06-22T07:31:20.511Z,35
2017-06-22T07:32:34.657Z,35
2017-06-22T07:33:36.542Z,35
2017-06-22T07:34:38.428Z,35
2017-06-22T07:35:40.299Z,35
2017-06-22T07:36:42.109Z,35
2017-06-22T07:37:43.922Z,35
2017-06-22T07:38:45.801Z,35
2017-06-22T07:39:47.667Z,35
2017-06-22T07:40:49.534Z,35
2017-06-22T07:42:03.675Z,35
2017-06-22T07:43:05.537Z,35
2017-06-22T07:44:07.420Z,35
2017-06-22T07:45:09.321Z,35
2017-06-22T07:46:11.173Z,35
2017-06-22T07:47:13.012Z,35
2017-06-22T07:48:14.884Z,35
2017-06-22T07:49:16.768Z,35
2017-06-22T07:50:18.631Z,35
2017-06-22T07:51:32.776Z,35
2017-06-22T07:52:34.661Z,35
2017-06-22T07:53:36.525Z,35
2017-06-22T07:54:38.400Z,35
2017-06-22T07:55:40.228Z,35
2017-06-22T07:56:42.031Z,35
2017-06-22T07:57:43.904Z,35
2017-06-22T07:58:45.795Z,35
2017-06-22T07:59:47.689Z,35
2017-06-22T08:01:01.828Z,35
2017-06-22T08:02:03.718Z,35
2017-06-22T08:03:05.603Z,35
2017-06-22T08:04:07.470Z,35
2017-06-22T08:05:09.281Z,35
2017-06-22T08:06:11.086Z,35
2017-06-22T08:07:12.953Z,35
2017-06-22T08:08:14.820Z,35
2017-06-22T08:09:16.691Z,35
2017-06-22T08:10:30.833Z,35
2017-06-22T08:11:32.700Z,35
2017-06-22T08:12:34.591Z,30
2017-06-22T08:13:36.481Z,35
2017-06-22T08:14:38.312Z,35
2017-06-22T08:15:40.142Z,35
2017-06-22T08:16:42.011Z,35
2017-06-22T08:17:43.894Z,35
2017-06-22T08:18:45.762Z,35
2017-06-22T08:19:59.904Z,35
2017-06-22T08:21:01.789Z,35
2017-06-22T08:22:03.664Z,35
2017-06-22T08:23:05.555Z,35
2017-06-22T08:24:07.381Z,35
2017-06-22T08:25:09.188Z,35
2017-06-22T08:26:11.059Z,35
2017-06-22T08:27:12.950Z,35
2017-06-22T08:28:14.836Z,35
2017-06-22T08:29:28.984Z,35
2017-06-22T08:30:30.872Z,30
2017-06-22T08:31:32.765Z,30
2017-06-22T08:32:34.654Z,30
2017-06-22T08:33:36.481Z,30
2017-06-22T08:34:38.291Z,30
2017-06-22T08:35:40.161Z,35
2017-06-22T08:36:42.029Z,35
2017-06-22T08:37:43.948Z,35
2017-06-22T08:38:58.089Z,35
2017-06-22T08:39:59.979Z,35
2017-06-22T08:41:01.868Z,35
2017-06-22T08:42:03.758Z,35
2017-06-22T08:43:05.586Z,35
2017-06-22T08:44:07.399Z,35
2017-06-22T08:45:09.265Z,35
2017-06-22T08:46:11.128Z,30
2017-06-22T08:47:13.002Z,30
2017-06-22T08:48:27.145Z,35
2017-06-22T08:49:29.033Z,35
2017-06-22T08:50:30.929Z,35
2017-06-22T08:51:32.815Z,35
2017-06-22T08:52:34.626Z,30
2017-06-22T08:53:36.435Z,30
2017-06-22T08:54:38.325Z,30
2017-06-22T08:55:40.189Z,30
2017-06-22T08:56:42.076Z,30
2017-06-22T08:57:56.222Z,30
2017-06-22T08:58:58.086Z,30
2017-06-22T08:59:59.959Z,35
2017-06-22T09:01:01.851Z,35
2017-06-22T09:02:03.675Z,35
2017-06-22T09:03:05.483Z,35
2017-06-22T09:04:07.356Z,35
2017-06-22T09:05:09.224Z,35
2017-06-22T09:06:11.112Z,35
2017-06-22T09:07:25.277Z,35
2017-06-22T09:08:27.148Z,35
2017-06-22T09:09:29.034Z,35
2017-06-22T09:10:30.901Z,30
2017-06-22T09:11:32.730Z,30
2017-06-22T09:12:34.543Z,35
2017-06-22T09:13:36.410Z,35
2017-06-22T09:14:38.282Z,35
2017-06-22T09:15:40.166Z,35
2017-06-22T09:16:54.313Z,35
2017-06-22T09:17:56.201Z,35
2017-06-22T09:18:58.093Z,35
2017-06-22T09:19:59.981Z,35
2017-06-22T09:21:01.814Z,35
2017-06-22T09:22:03.623Z,35
2017-06-22T09:23:05.510Z,35
2017-06-22T09:24:07.382Z,35
2017-06-22T09:25:09.273Z,35
2017-06-22T09:26:23.441Z,35
2017-06-22T09:27:25.326Z,35
2017-06-22T09:28:27.196Z,35
2017-06-22T09:29:29.059Z,35
2017-06-22T09:30:30.863Z,35
2017-06-22T09:31:32.671Z,35
2017-06-22T09:32:34.540Z,35
2017-06-22T09:33:36.410Z,35
2017-06-22T09:34:38.300Z,35
2017-06-22T09:35:52.464Z,35
2017-06-22T09:36:54.352Z,35
2017-06-22T09:37:56.247Z,35
2017-06-22T09:38:58.118Z,35
2017-06-22T09:39:59.946Z,35
2017-06-22T09:41:01.753Z,40
2017-06-22T09:42:03.625Z,35
2017-06-22T09:43:05.518Z,35
2017-06-22T09:44:07.408Z,35
2017-06-22T09:45:21.575Z,40
2017-06-22T09:46:23.440Z,40
2017-06-22T09:47:25.317Z,35
2017-06-22T09:48:27.206Z,35
2017-06-22T09:49:29.034Z,35
2017-06-22T09:50:30.867Z,35
2017-06-22T09:51:32.761Z,35
2017-06-22T09:52:34.645Z,35
2017-06-22T09:53:36.521Z,35
2017-06-22T09:54:50.688Z,35
2017-06-22T09:55:52.575Z,35
2017-06-22T09:56:54.462Z,35
2017-06-22T09:57:56.333Z,35
2017-06-22T09:58:58.144Z,35
2017-06-22T09:59:59.974Z,35
2017-06-22T10:01:01.845Z,35
2017-06-22T10:02:03.737Z,35
2017-06-22T10:03:05.629Z,35
2017-06-22T10:04:19.794Z,35
2017-06-22T10:05:21.665Z,35
2017-06-22T10:06:23.549Z,35
2017-06-22T10:07:25.420Z,35
2017-06-22T10:08:27.252Z,35
2017-06-22T10:09:29.063Z,35
2017-06-22T10:10:30.956Z,35
2017-06-22T10:11:32.848Z,35
2017-06-22T10:12:34.738Z,35
2017-06-22T10:13:48.907Z,35
2017-06-22T10:14:50.772Z,35
2017-06-22T10:15:52.642Z,35
2017-06-22T10:16:54.520Z,35
2017-06-22T10:17:56.343Z,35
2017-06-22T10:18:58.158Z,35
2017-06-22T10:20:00.026Z,35
2017-06-22T10:21:01.890Z,35
2017-06-22T10:22:03.761Z,35
2017-06-22T10:23:17.902Z,35
2017-06-22T10:24:19.772Z,35
2017-06-22T10:25:21.640Z,35
2017-06-22T10:26:23.514Z,35
2017-06-22T10:27:25.341Z,35
2017-06-22T10:28:27.156Z,35
2017-06-22T10:29:29.047Z,35
2017-06-22T10:30:30.920Z,35
2017-06-22T10:31:32.807Z,35
2017-06-22T10:32:47.106Z,35
2017-06-22T10:33:48.991Z,35
2017-06-22T10:34:50.860Z,35
2017-06-22T10:35:52.754Z,35
2017-06-22T10:36:54.586Z,35
2017-06-22T10:37:56.411Z,35
2017-06-22T10:38:58.289Z,35
2017-06-22T10:40:00.183Z,35
2017-06-22T10:41:02.075Z,35
2017-06-22T10:42:16.216Z,40
2017-06-22T10:43:18.087Z,40
2017-06-22T10:44:19.977Z,40
2017-06-22T10:45:21.842Z,40
2017-06-22T10:46:23.658Z,40
2017-06-22T10:47:25.492Z,35
2017-06-22T10:48:27.385Z,40
2017-06-22T10:49:29.279Z,40
2017-06-22T10:50:31.146Z,40
2017-06-22T10:51:45.294Z,40
2017-06-22T10:52:47.182Z,40
2017-06-22T10:53:49.074Z,40
2017-06-22T10:54:50.948Z,40
2017-06-22T10:55:52.779Z,40
2017-06-22T10:56:54.586Z,40
2017-06-22T10:57:56.456Z,40
2017-06-22T10:58:58.317Z,35
2017-06-22T11:00:00.187Z,35
2017-06-22T11:01:14.327Z,40
2017-06-22T11:02:16.216Z,40
2017-06-22T11:03:18.109Z,40
2017-06-22T11:04:19.978Z,40
2017-06-22T11:05:21.788Z,30
2017-06-22T11:06:23.616Z,35
2017-06-22T11:07:25.489Z,35
2017-06-22T11:08:27.379Z,35
2017-06-22T11:09:29.253Z,35
2017-06-22T11:10:43.469Z,35
2017-06-22T11:11:45.359Z,35
2017-06-22T11:12:47.232Z,35
2017-06-22T11:13:49.128Z,35
2017-06-22T11:14:50.959Z,35
2017-06-22T11:15:52.784Z,35
2017-06-22T11:16:54.663Z,35
2017-06-22T11:17:56.551Z,35
2017-06-22T11:18:58.422Z,35
2017-06-22T11:20:12.586Z,35
2017-06-22T11:21:14.463Z,35
2017-06-22T11:22:16.357Z,35
2017-06-22T11:23:18.248Z,35
2017-06-22T11:24:20.057Z,35
2017-06-22T11:25:21.866Z,35
2017-06-22T11:26:23.737Z,35
2017-06-22T11:27:25.631Z,35
2017-06-22T11:28:27.521Z,35
2017-06-22T11:29:41.666Z,35
2017-06-22T11:30:43.556Z,35
2017-06-22T11:31:45.425Z,35
2017-06-22T11:32:47.315Z,40
2017-06-22T11:33:49.130Z,40
2017-06-22T11:34:50.956Z,40
2017-06-22T11:35:52.833Z,40
2017-06-22T11:36:54.721Z,40
2017-06-22T11:37:56.597Z,40
2017-06-22T11:39:10.759Z,45
2017-06-22T11:40:12.627Z,45
2017-06-22T11:41:14.495Z,45
2017-06-22T11:42:16.367Z,45
2017-06-22T11:43:18.201Z,45
2017-06-22T11:44:20.012Z,45
2017-06-22T11:45:21.881Z,40
2017-06-22T11:46:23.768Z,40
2017-06-22T11:47:25.639Z,40
2017-06-22T11:48:39.786Z,40
2017-06-22T11:49:41.677Z,45
2017-06-22T11:50:43.573Z,45
2017-06-22T11:51:45.462Z,50
2017-06-22T11:52:47.268Z,55
2017-06-22T11:53:49.083Z,60
2017-06-22T11:54:50.980Z,65
2017-06-22T11:55:52.855Z,75
2017-06-22T11:56:54.743Z,80
2017-06-22T11:58:08.918Z,80
2017-06-22T11:59:10.810Z,80
2017-06-22T12:00:12.703Z,75
2017-06-22T12:01:14.579Z,75
2017-06-22T12:02:16.414Z,70
2017-06-22T12:03:18.221Z,70
2017-06-22T12:04:20.094Z,60
2017-06-22T12:05:21.968Z,50
2017-06-22T12:06:23.860Z,50
2017-06-22T12:07:38.001Z,45
2017-06-22T12:08:39.878Z,45
2017-06-22T12:09:41.776Z,45
2017-06-22T12:10:43.647Z,40
2017-06-22T12:11:45.481Z,45
2017-06-22T12:12:47.315Z,45
2017-06-22T12:13:49.210Z,45
2017-06-22T12:14:51.104Z,45
2017-06-22T12:15:52.995Z,45
2017-06-22T12:17:07.144Z,45
2017-06-22T12:18:09.041Z,45
2017-06-22T12:19:10.934Z,45
2017-06-22T12:20:12.828Z,45
2017-06-22T12:21:14.636Z,45
2017-06-22T12:22:16.448Z,45
2017-06-22T12:23:18.319Z,45
2017-06-22T12:24:20.193Z,45
2017-06-22T12:25:22.087Z,45
2017-06-22T12:26:36.234Z,45
2017-06-22T12:27:38.202Z,45
2017-06-22T12:28:40.093Z,45
2017-06-22T12:29:41.966Z,45
2017-06-22T12:30:43.778Z,45
2017-06-22T12:31:45.611Z,45
2017-06-22T12:32:47.498Z,45
2017-06-22T12:33:49.386Z,50
2017-06-22T12:34:51.282Z,50
2017-06-22T12:36:05.453Z,50
2017-06-22T12:37:07.343Z,50
2017-06-22T12:38:09.215Z,50
2017-06-22T12:39:11.082Z,50
2017-06-22T12:40:12.893Z,50
2017-06-22T12:41:14.710Z,50
2017-06-22T12:42:16.606Z,55
2017-06-22T12:43:18.501Z,60
2017-06-22T12:44:20.403Z,65
2017-06-22T12:45:34.575Z,65
2017-06-22T12:46:36.463Z,65
2017-06-22T12:47:38.343Z,60
2017-06-22T12:48:40.231Z,60
2017-06-22T12:49:42.046Z,60
2017-06-22T12:50:43.860Z,60
2017-06-22T12:51:45.738Z,60
2017-06-22T12:52:47.631Z,65
2017-06-22T12:53:49.506Z,65
2017-06-22T12:55:03.674Z,65
2017-06-22T12:56:05.570Z,65
2017-06-22T12:57:07.468Z,65
2017-06-22T12:58:09.360Z,70
2017-06-22T12:59:11.179Z,70
2017-06-22T13:00:13.015Z,75
2017-06-22T13:01:14.888Z,75
2017-06-22T13:02:16.781Z,70
2017-06-22T13:03:18.654Z,70
2017-06-22T13:04:32.807Z,70
2017-06-22T13:05:34.701Z,75
2017-06-22T13:06:36.598Z,75
2017-06-22T13:07:38.473Z,75
2017-06-22T13:08:40.307Z,75
2017-06-22T13:09:42.123Z,80
2017-06-22T13:10:43.996Z,80
2017-06-22T13:11:45.872Z,80
2017-06-22T13:12:47.769Z,75
2017-06-22T13:14:01.943Z,75
2017-06-22T13:15:03.833Z,80
2017-06-22T13:16:05.779Z,85
2017-06-22T13:17:07.658Z,80
2017-06-22T13:18:09.475Z,80
2017-06-22T13:19:11.314Z,80
2017-06-22T13:20:13.309Z,80
2017-06-22T13:21:15.187Z,80
2017-06-22T13:22:17.153Z,80
2017-06-22T13:23:31.307Z,80
2017-06-22T13:24:33.206Z,80
2017-06-22T13:25:35.085Z,80
2017-06-22T13:26:36.987Z,80
2017-06-22T13:27:38.822Z,80
2017-06-22T13:28:40.635Z,80
2017-06-22T13:29:42.515Z,80
2017-06-22T13:30:44.559Z,80
2017-06-22T13:31:46.587Z,80
2017-06-22T13:33:00.895Z,80
2017-06-22T13:34:02.877Z,80
2017-06-22T13:35:04.777Z,80
2017-06-22T13:36:06.674Z,80
2017-06-22T13:37:08.588Z,80
2017-06-22T13:38:10.409Z,80
2017-06-22T13:39:12.423Z,80
2017-06-22T13:40:14.322Z,80
2017-06-22T13:41:16.327Z,80
2017-06-22T13:42:30.702Z,80
2017-06-22T13:43:32.655Z,80
2017-06-22T13:44:34.623Z,80
2017-06-22T13:45:36.546Z,80
2017-06-22T13:46:38.438Z,80
2017-06-22T13:47:40.304Z,80
2017-06-22T13:48:42.183Z,80
2017-06-22T13:49:44.060Z,80
2017-06-22T13:50:45.956Z,80
2017-06-22T13:52:00.103Z,80
2017-06-22T13:53:01.989Z,80
2017-06-22T13:54:03.940Z,80
2017-06-22T13:55:05.837Z,80
2017-06-22T13:56:07.686Z,75
2017-06-22T13:57:09.634Z,75
2017-06-22T13:58:11.631Z,75
2017-06-22T13:59:13.627Z,75
2017-06-22T14:00:15.744Z,75
2017-06-22T14:01:29.950Z,75
2017-06-22T14:02:31.829Z,75
2017-06-22T14:03:33.865Z,75
2017-06-22T14:04:35.763Z,75
2017-06-22T14:05:37.656Z,75
2017-06-22T14:06:39.480Z,75
2017-06-22T14:07:41.317Z,75
2017-06-22T14:08:43.193Z,75
2017-06-22T14:09:45.063Z,75
2017-06-22T14:10:59.371Z,75
2017-06-22T14:12:01.467Z,75
2017-06-22T14:13:03.456Z,75
2017-06-22T14:14:05.318Z,80
2017-06-22T14:15:07.259Z,80
2017-06-22T14:16:09.173Z,80
2017-06-22T14:17:11.087Z,80
2017-06-22T14:18:13.043Z,80
2017-06-22T14:19:14.964Z,80
2017-06-22T14:20:29.300Z,80
2017-06-22T14:21:31.214Z,80
2017-06-22T14:22:33.094Z,80
2017-06-22T14:23:35.134Z,80
2017-06-22T14:24:37.029Z,80
2017-06-22T14:25:38.866Z,80
2017-06-22T14:26:40.746Z,80
2017-06-22T14:27:42.614Z,75
2017-06-22T14:28:44.502Z,75
2017-06-22T14:29:58.704Z,75
2017-06-22T14:31:00.577Z,75
2017-06-22T14:32:02.577Z,75
2017-06-22T14:33:04.457Z,75
2017-06-22T14:34:06.356Z,50
2017-06-22T14:35:08.192Z,15
2017-06-22T14:36:10.090Z,15
2017-06-22T14:37:12.025Z,20
2017-06-22T14:38:13.959Z,20
2017-06-22T14:39:28.182Z,20
2017-06-22T14:40:30.084Z,15
2017-06-22T14:41:31.953Z,15
2017-06-22T14:42:33.822Z,15
2017-06-22T14:43:35.782Z,15
2017-06-22T14:44:37.885Z,15
2017-06-22T14:45:39.753Z,15
2017-06-22T14:46:41.640Z,300
2017-06-22T14:47:43.526Z,295
2017-06-22T14:48:57.711Z,430
2017-06-22T14:49:59.632Z,490
2017-06-22T14:51:01.546Z,485
2017-06-22T14:52:03.431Z,495
2017-06-22T14:53:05.265Z,465
2017-06-22T14:54:07.212Z,430
2017-06-22T14:55:09.275Z,395
2017-06-22T14:56:11.161Z,360
2017-06-22T14:57:13.052Z,330
2017-06-22T14:58:27.300Z,305
2017-06-22T14:59:29.226Z,290
2017-06-22T15:00:31.141Z,280
2017-06-22T15:01:33.186Z,280
2017-06-22T15:02:34.995Z,285
2017-06-22T15:03:36.805Z,285
2017-06-22T15:04:38.674Z,285
2017-06-22T15:05:40.661Z,270
2017-06-22T15:06:42.558Z,245
2017-06-22T15:07:56.705Z,220